createdAt,value
2022-12-16T00:01:12.038Z,2.43
2022-12-16T00:03:42.587Z,2.40
2022-12-16T00:06:12.060Z,2.50
2022-12-16T00:08:42.299Z,2.60
2022-12-16T00:11:13.223Z,2.60
2022-12-16T00:13:43.031Z,2.50
2022-12-16T00:16:14.100Z,2.37
2022-12-16T00:18:43.710Z,2.60
2022-12-16T00:21:13.990Z,2.30
2022-12-16T00:23:43.378Z,2.90
2022-12-16T00:26:14.794Z,2.77
2022-12-16T00:28:44.967Z,2.40
2022-12-16T00:31:14.345Z,2.50
2022-12-16T00:33:43.885Z,2.27
2022-12-16T00:36:13.304Z,2.87
2022-12-16T00:38:42.585Z,2.47
2022-12-16T00:41:13.387Z,2.70
2022-12-16T00:43:42.784Z,2.73
2022-12-16T00:46:12.049Z,2.90
2022-12-16T00:48:41.476Z,2.80
2022-12-16T00:51:10.927Z,2.60
2022-12-16T00:53:40.584Z,3.27
2022-12-16T00:56:14.893Z,2.70
2022-12-16T00:58:44.364Z,2.83
2022-12-16T01:01:14.693Z,3.13
2022-12-16T01:03:44.312Z,2.60
2022-12-16T01:06:15.223Z,3.27
2022-12-16T01:08:49.025Z,2.63
2022-12-16T01:11:21.683Z,2.77
2022-12-16T01:13:55.219Z,2.70
2022-12-16T01:16:24.945Z,2.77
2022-12-16T01:18:55.593Z,2.50
2022-12-16T01:21:24.943Z,2.63
2022-12-16T01:23:55.107Z,3.23
2022-12-16T01:26:26.054Z,2.60
2022-12-16T01:28:55.455Z,2.50
2022-12-16T01:31:25.108Z,3.27
2022-12-16T01:33:54.695Z,3.57
2022-12-16T01:36:24.282Z,2.77
2022-12-16T01:38:54.108Z,2.30
2022-12-16T01:41:26.057Z,2.40
2022-12-16T01:44:10.214Z,2.40
2022-12-16T01:46:40.184Z,2.20
2022-12-16T01:49:13.356Z,2.27
2022-12-16T01:51:52.066Z,2.30
2022-12-16T01:54:30.984Z,2.10
2022-12-16T01:57:05.406Z,2.10
2022-12-16T01:59:37.337Z,1.97
2022-12-16T02:02:07.507Z,1.80
2022-12-16T02:04:56.995Z,3.33
2022-12-16T02:07:26.523Z,1.80
2022-12-16T02:09:56.874Z,1.80
2022-12-16T02:12:33.655Z,1.97
2022-12-16T02:15:31.575Z,2.40
2022-12-16T02:18:12.229Z,2.00
2022-12-16T02:21:25.563Z,2.00
2022-12-16T02:24:41.904Z,2.23
2022-12-16T02:27:45.616Z,2.10
2022-12-16T02:30:41.712Z,2.30
2022-12-16T02:33:22.618Z,2.37
2022-12-16T02:35:59.424Z,2.60
2022-12-16T02:38:37.334Z,2.40
2022-12-16T02:41:08.835Z,2.60
2022-12-16T02:43:52.160Z,2.50
2022-12-16T02:46:25.489Z,2.70
2022-12-16T02:48:55.359Z,2.77
2022-12-16T02:51:27.075Z,2.70
2022-12-16T02:53:57.284Z,2.97
2022-12-16T02:56:40.615Z,3.03
2022-12-16T02:59:18.095Z,2.93
2022-12-16T03:01:54.450Z,4.30
2022-12-16T03:04:27.682Z,3.47
2022-12-16T03:06:59.301Z,3.93
2022-12-16T03:09:33.921Z,3.47
2022-12-16T03:12:05.510Z,3.40
2022-12-16T03:14:36.618Z,3.20
2022-12-16T03:17:09.040Z,2.97
2022-12-16T03:19:40.853Z,3.43
2022-12-16T03:22:14.288Z,5.07
2022-12-16T03:24:44.141Z,4.53
2022-12-16T03:27:18.796Z,4.23
2022-12-16T03:29:55.376Z,2.97
2022-12-16T03:32:31.296Z,2.70
2022-12-16T03:35:05.632Z,3.13
2022-12-16T03:37:37.629Z,2.80
2022-12-16T03:40:11.251Z,3.30
2022-12-16T03:42:42.783Z,3.50
2022-12-16T03:45:17.116Z,3.37
2022-12-16T03:47:52.887Z,3.10
2022-12-16T03:50:25.501Z,3.27
2022-12-16T03:52:55.292Z,3.23
2022-12-16T03:55:24.601Z,3.47
2022-12-16T03:57:54.110Z,3.50
2022-12-16T04:00:23.782Z,3.97
2022-12-16T04:02:54.988Z,3.40
2022-12-16T04:05:24.643Z,3.50
2022-12-16T04:07:57.345Z,2.93
2022-12-16T04:10:48.455Z,3.40
2022-12-16T04:13:35.576Z,3.40
2022-12-16T04:16:22.386Z,3.50
2022-12-16T04:19:25.153Z,3.37
2022-12-16T04:22:11.574Z,6.10
2022-12-16T04:24:40.992Z,3.77
2022-12-16T04:27:29.802Z,5.00
2022-12-16T04:30:16.554Z,3.97
2022-12-16T04:33:02.925Z,4.03
2022-12-16T04:35:51.372Z,5.47
2022-12-16T04:38:38.207Z,4.53
2022-12-16T04:41:24.843Z,4.00
2022-12-16T04:44:11.678Z,4.10
2022-12-16T04:46:58.184Z,4.10
2022-12-16T04:49:44.864Z,4.03
2022-12-16T04:52:33.005Z,4.93
2022-12-16T04:55:19.487Z,4.50
2022-12-16T04:58:08.309Z,4.23
2022-12-16T05:00:54.594Z,4.13
2022-12-16T05:03:42.800Z,3.77
2022-12-16T05:06:29.203Z,3.90
2022-12-16T05:09:17.052Z,3.63
2022-12-16T05:12:03.805Z,4.50
2022-12-16T05:14:50.696Z,5.97
2022-12-16T05:17:37.131Z,4.93
2022-12-16T05:20:24.941Z,5.50
2022-12-16T05:23:14.104Z,5.40
2022-12-16T05:26:02.678Z,5.73
2022-12-16T05:28:49.616Z,7.43
2022-12-16T05:31:41.648Z,11.53
2022-12-16T05:34:28.493Z,13.90
2022-12-16T05:37:14.983Z,12.07
2022-12-16T05:40:01.348Z,15.17
2022-12-16T05:43:03.717Z,12.00
2022-12-16T05:45:50.568Z,12.83
2022-12-16T05:48:37.141Z,12.57
2022-12-16T05:51:23.591Z,12.00
2022-12-16T05:54:10.192Z,12.10
2022-12-16T05:56:56.653Z,11.13
2022-12-16T05:59:44.650Z,10.50
2022-12-16T06:02:31.657Z,10.67
2022-12-16T06:05:18.282Z,9.80
2022-12-16T06:08:10.122Z,11.20
2022-12-16T06:10:56.994Z,10.23
2022-12-16T06:13:44.013Z,9.27
2022-12-16T06:16:32.151Z,9.50
2022-12-16T06:19:18.597Z,9.50
2022-12-16T06:22:05.581Z,9.67
2022-12-16T06:24:52.122Z,10.60
2022-12-16T06:27:38.573Z,10.20
2022-12-16T06:30:26.231Z,11.20
2022-12-16T06:33:14.064Z,13.73
2022-12-16T06:36:00.502Z,13.83
2022-12-16T06:38:46.873Z,12.80
2022-12-16T06:41:33.350Z,13.30
2022-12-16T06:44:19.761Z,12.23
2022-12-16T06:47:06.444Z,13.30
2022-12-16T06:49:54.451Z,13.43
2022-12-16T06:52:41.155Z,11.67
2022-12-16T06:55:28.162Z,12.00
2022-12-16T06:58:17.075Z,12.77
2022-12-16T07:01:03.889Z,12.73
2022-12-16T07:03:53.344Z,13.03
2022-12-16T07:06:41.643Z,14.57
2022-12-16T07:09:28.423Z,18.20
2022-12-16T07:12:15.183Z,19.73
2022-12-16T07:15:01.599Z,19.73
2022-12-16T07:17:47.822Z,19.30
2022-12-16T07:20:34.643Z,21.33
2022-12-16T07:23:22.871Z,24.47
2022-12-16T07:26:09.624Z,26.87
2022-12-16T07:28:56.534Z,20.10
2022-12-16T07:31:43.101Z,19.03
2022-12-16T07:34:29.784Z,19.23
2022-12-16T07:37:16.563Z,19.13
2022-12-16T07:40:04.765Z,21.93
2022-12-16T07:42:51.139Z,21.87
2022-12-16T07:45:44.943Z,22.37
2022-12-16T07:48:31.942Z,21.03
2022-12-16T07:51:18.614Z,20.83
2022-12-16T07:54:05.085Z,20.03
2022-12-16T07:56:54.965Z,19.13
2022-12-16T07:59:41.417Z,21.23
2022-12-16T08:02:29.204Z,19.80
2022-12-16T08:05:15.844Z,18.80
2022-12-16T08:08:02.741Z,18.27
2022-12-16T08:10:49.010Z,20.17
2022-12-16T08:13:37.207Z,18.43
2022-12-16T08:16:26.779Z,20.83
2022-12-16T08:19:12.713Z,19.33
2022-12-16T08:21:59.108Z,18.63
2022-12-16T08:24:51.284Z,17.53
2022-12-16T08:27:39.833Z,21.30
2022-12-16T08:30:29.234Z,21.63
2022-12-16T08:33:21.303Z,22.50
2022-12-16T08:36:07.716Z,24.90
2022-12-16T08:38:54.956Z,23.37
2022-12-16T08:41:42.286Z,19.17
2022-12-16T08:44:29.207Z,17.87
2022-12-16T08:47:17.075Z,16.27
2022-12-16T08:50:04.043Z,18.37
2022-12-16T08:52:50.386Z,23.00
2022-12-16T08:55:36.843Z,24.77
2022-12-16T08:58:23.085Z,19.63
2022-12-16T09:01:10.201Z,19.37
2022-12-16T09:04:12.725Z,26.53
2022-12-16T09:06:59.566Z,21.87
2022-12-16T09:09:46.399Z,21.73
2022-12-16T09:12:34.795Z,37.40
2022-12-16T09:15:21.610Z,25.87
2022-12-16T09:18:14.003Z,20.77
2022-12-16T09:21:02.164Z,20.00
2022-12-16T09:23:48.902Z,21.50
2022-12-16T09:26:35.498Z,28.77
2022-12-16T09:29:22.164Z,21.97
2022-12-16T09:32:08.462Z,26.00
2022-12-16T09:34:55.160Z,25.60
2022-12-16T09:37:39.721Z,26.97
2022-12-16T09:40:27.155Z,22.70
2022-12-16T09:43:17.463Z,19.47
2022-12-16T09:46:12.768Z,15.73
2022-12-16T09:49:07.145Z,15.10
2022-12-16T09:51:54.679Z,11.10
2022-12-16T09:54:46.673Z,10.13
2022-12-16T09:57:34.460Z,8.93
2022-12-16T10:00:26.263Z,9.33
2022-12-16T10:03:15.224Z,9.63
2022-12-16T10:06:07.803Z,12.40
2022-12-16T10:09:03.364Z,9.83
2022-12-16T10:12:07.495Z,11.00
2022-12-16T10:14:58.958Z,10.17
2022-12-16T10:17:45.988Z,12.07
2022-12-16T10:20:35.489Z,11.83
2022-12-16T10:23:24.575Z,13.30
2022-12-16T10:26:13.486Z,14.70
2022-12-16T10:29:04.929Z,13.73
2022-12-16T10:31:51.788Z,12.07
2022-12-16T10:34:44.184Z,15.90
2022-12-16T10:37:34.233Z,10.73
2022-12-16T10:40:21.416Z,10.63
2022-12-16T10:43:09.928Z,11.10
2022-12-16T10:46:01.976Z,9.37
2022-12-16T10:48:54.954Z,12.20
2022-12-16T10:51:43.898Z,11.43
2022-12-16T10:54:49.477Z,12.87
2022-12-16T10:57:47.678Z,11.47
2022-12-16T11:00:49.042Z,10.57
2022-12-16T11:03:42.907Z,9.30
2022-12-16T11:06:32.150Z,9.27
2022-12-16T11:09:41.065Z,15.03
2022-12-16T11:12:40.532Z,15.03
2022-12-16T11:15:44.765Z,16.83
2022-12-16T11:18:32.865Z,18.80
2022-12-16T11:21:30.745Z,16.50
2022-12-16T11:24:30.691Z,15.03
2022-12-16T11:27:19.122Z,14.73
2022-12-16T11:30:16.639Z,13.80
2022-12-16T11:33:06.569Z,16.97
2022-12-16T11:36:03.840Z,12.73
2022-12-16T11:38:59.947Z,9.50
2022-12-16T11:41:50.110Z,11.50
2022-12-16T11:44:40.091Z,10.60
2022-12-16T11:47:31.090Z,11.53
2022-12-16T11:50:18.232Z,11.00
2022-12-16T11:53:15.943Z,9.67
2022-12-16T11:56:14.021Z,12.53
2022-12-16T11:59:18.186Z,10.57
2022-12-16T12:02:18.407Z,11.33
2022-12-16T12:05:08.079Z,11.10
2022-12-16T12:08:01.790Z,13.73
2022-12-16T12:11:10.922Z,13.43
2022-12-16T12:14:10.799Z,11.63
2022-12-16T12:17:13.858Z,12.93
2022-12-16T12:20:10.698Z,14.03
2022-12-16T12:22:58.260Z,13.17
2022-12-16T12:25:47.650Z,12.70
2022-12-16T12:28:45.230Z,11.60
2022-12-16T12:31:48.628Z,10.70
2022-12-16T12:34:43.441Z,10.93
2022-12-16T12:37:40.764Z,11.63
2022-12-16T12:40:42.743Z,9.83
2022-12-16T12:43:43.537Z,10.23
2022-12-16T12:46:40.471Z,11.10
2022-12-16T12:49:35.189Z,12.60
2022-12-16T12:52:32.550Z,12.43
2022-12-16T12:55:24.391Z,13.93
2022-12-16T12:58:12.871Z,13.00
2022-12-16T13:01:02.726Z,16.00
2022-12-16T13:03:53.500Z,13.33
2022-12-16T13:06:41.040Z,13.80
2022-12-16T13:09:42.412Z,14.13
2022-12-16T13:12:48.464Z,15.63
2022-12-16T13:15:47.615Z,16.00
2022-12-16T13:18:52.680Z,19.43
2022-12-16T13:22:07.670Z,19.17
2022-12-16T13:24:59.010Z,19.33
2022-12-16T13:27:47.555Z,19.63
2022-12-16T13:30:41.390Z,20.43
2022-12-16T13:33:42.704Z,21.20
2022-12-16T13:36:32.911Z,20.20
2022-12-16T13:39:37.558Z,22.13
2022-12-16T13:42:24.296Z,20.73
2022-12-16T13:45:35.765Z,19.93
2022-12-16T13:48:44.661Z,20.13
2022-12-16T13:51:46.156Z,21.60
2022-12-16T13:54:35.137Z,20.33
2022-12-16T13:57:24.978Z,20.70
2022-12-16T14:00:13.236Z,22.27
2022-12-16T14:03:01.866Z,21.63
2022-12-16T14:05:51.826Z,21.90
2022-12-16T14:08:41.726Z,22.77
2022-12-16T14:11:37.547Z,23.87
2022-12-16T14:14:30.025Z,24.10
2022-12-16T14:17:18.378Z,26.23
2022-12-16T14:20:16.340Z,28.00
2022-12-16T14:23:32.480Z,28.77
2022-12-16T14:26:22.229Z,28.27
2022-12-16T14:29:10.224Z,26.83
2022-12-16T14:31:59.116Z,28.37
2022-12-16T14:34:47.693Z,26.93
2022-12-16T14:37:35.564Z,27.53
2022-12-16T14:40:22.882Z,28.43
2022-12-16T14:43:13.147Z,26.67
2022-12-16T14:46:08.306Z,30.53
2022-12-16T14:48:57.417Z,30.57
2022-12-16T14:51:45.813Z,29.10
2022-12-16T14:54:42.119Z,31.80
2022-12-16T14:57:34.733Z,29.50
2022-12-16T15:00:24.540Z,28.20
2022-12-16T15:03:14.025Z,31.43
2022-12-16T15:06:06.421Z,27.37
2022-12-16T15:08:55.235Z,28.23
2022-12-16T15:11:44.610Z,28.97
2022-12-16T15:14:42.541Z,29.93
2022-12-16T15:17:39.520Z,30.60
2022-12-16T15:20:35.640Z,29.47
2022-12-16T15:23:22.349Z,34.00
2022-12-16T15:26:11.175Z,29.47
2022-12-16T15:29:04.172Z,29.30
2022-12-16T15:31:54.554Z,24.93
2022-12-16T15:34:51.365Z,22.30
2022-12-16T15:37:41.578Z,18.57
2022-12-16T15:40:43.957Z,17.57
2022-12-16T15:43:46.159Z,18.97
2022-12-16T15:46:46.421Z,16.53
2022-12-16T15:49:39.946Z,18.90
2022-12-16T15:55:43.316Z,28.03
2022-12-16T15:58:37.288Z,31.10
2022-12-16T16:01:24.991Z,34.20
2022-12-16T16:04:13.677Z,35.13
2022-12-16T16:07:05.239Z,42.03
2022-12-16T16:09:52.945Z,54.03
2022-12-16T16:12:43.889Z,34.90
2022-12-16T16:15:32.237Z,36.57
2022-12-16T16:18:22.067Z,39.03
2022-12-16T16:21:10.053Z,38.40
2022-12-16T16:23:56.459Z,41.57
2022-12-16T16:26:46.197Z,43.03
2022-12-16T16:29:34.552Z,42.57
2022-12-16T16:32:21.432Z,38.77
2022-12-16T16:35:10.816Z,37.10
2022-12-16T16:37:56.875Z,27.43
2022-12-16T16:40:49.763Z,27.63
2022-12-16T16:43:33.114Z,79.30
2022-12-16T16:46:22.023Z,80.67
2022-12-16T16:49:08.544Z,89.47
2022-12-16T16:51:55.125Z,59.73
2022-12-16T16:54:41.829Z,33.37
2022-12-16T16:57:29.295Z,45.93
2022-12-16T17:00:16.022Z,42.07
2022-12-16T17:03:12.671Z,27.53
2022-12-16T17:05:59.283Z,21.30
2022-12-16T17:08:46.040Z,16.80
2022-12-16T17:11:36.843Z,18.00
2022-12-16T17:14:23.238Z,19.07
2022-12-16T17:17:09.660Z,21.87
2022-12-16T17:19:57.527Z,20.27
2022-12-16T17:22:44.146Z,22.27
2022-12-16T17:25:31.801Z,26.13
2022-12-16T17:28:18.459Z,19.93
2022-12-16T17:31:05.237Z,20.70
2022-12-16T17:33:51.760Z,18.57
2022-12-16T17:36:40.058Z,23.77
2022-12-16T17:39:28.570Z,21.23
2022-12-16T17:42:15.357Z,37.30
2022-12-16T17:45:01.729Z,29.90
2022-12-16T17:47:50.636Z,26.33
2022-12-16T17:50:37.070Z,30.07
2022-12-16T17:53:25.252Z,28.80
2022-12-16T17:56:11.970Z,28.40
2022-12-16T17:58:58.630Z,31.90
2022-12-16T18:01:45.082Z,31.70
2022-12-16T18:04:31.871Z,27.87
2022-12-16T18:07:18.529Z,41.00
2022-12-16T18:10:07.805Z,29.10
2022-12-16T18:12:54.385Z,41.03
2022-12-16T18:15:40.927Z,27.60
2022-12-16T18:18:27.592Z,35.03
2022-12-16T18:21:14.088Z,32.20
2022-12-16T18:24:11.871Z,31.93
2022-12-16T18:27:00.031Z,27.57
2022-12-16T18:29:55.282Z,23.77
2022-12-16T18:32:42.051Z,25.10
2022-12-16T18:35:28.255Z,26.37
2022-12-16T18:38:16.637Z,29.37
2022-12-16T18:41:03.365Z,34.13
2022-12-16T18:43:51.255Z,31.40
2022-12-16T18:46:37.558Z,29.30
2022-12-16T18:49:24.414Z,35.93
2022-12-16T18:52:11.177Z,35.30
2022-12-16T18:54:57.554Z,35.40
2022-12-16T18:57:44.138Z,32.77
2022-12-16T19:00:33.231Z,26.00
2022-12-16T19:03:19.534Z,33.47
2022-12-16T19:06:13.417Z,32.90
2022-12-16T19:09:00.088Z,37.50
2022-12-16T19:11:46.987Z,34.63
2022-12-16T19:14:33.346Z,34.20
2022-12-16T19:17:21.816Z,34.33
2022-12-16T19:20:09.203Z,33.50
2022-12-16T19:22:55.516Z,38.13
2022-12-16T19:25:43.093Z,35.27
2022-12-16T19:28:32.273Z,36.20
2022-12-16T19:31:19.115Z,32.93
2022-12-16T19:34:07.311Z,30.40
2022-12-16T19:36:53.601Z,33.57
2022-12-16T19:39:40.368Z,32.40
2022-12-16T19:42:29.012Z,34.10
2022-12-16T19:45:15.682Z,41.43
2022-12-16T19:48:04.599Z,37.07
2022-12-16T19:50:56.317Z,33.80
2022-12-16T19:53:43.149Z,38.47
2022-12-16T19:56:29.671Z,30.63
2022-12-16T19:59:16.296Z,37.03
2022-12-16T20:02:17.590Z,39.67
2022-12-16T20:05:04.209Z,43.70
2022-12-16T20:07:52.152Z,48.13
2022-12-16T20:10:42.794Z,45.10
2022-12-16T20:13:37.184Z,48.30
2022-12-16T20:16:24.985Z,41.93
2022-12-16T20:19:12.250Z,43.27
2022-12-16T20:22:05.782Z,39.50
2022-12-16T20:24:56.320Z,39.00
2022-12-16T20:27:43.081Z,39.27
2022-12-16T20:30:30.411Z,39.97
2022-12-16T20:33:16.910Z,36.60
2022-12-16T20:36:13.160Z,36.73
2022-12-16T20:38:59.481Z,36.47
2022-12-16T20:41:55.999Z,39.70
2022-12-16T20:44:43.000Z,38.77
2022-12-16T20:47:29.760Z,39.50
2022-12-16T20:50:16.059Z,40.57
2022-12-16T20:53:02.550Z,35.50
2022-12-16T20:55:49.360Z,41.70
2022-12-16T20:58:40.722Z,38.20
2022-12-16T21:01:27.232Z,34.80
2022-12-16T21:04:14.053Z,38.90
2022-12-16T21:07:00.419Z,40.60
2022-12-16T21:09:46.870Z,40.37
2022-12-16T21:12:33.562Z,40.63
2022-12-16T21:15:24.750Z,38.53
2022-12-16T21:18:11.351Z,37.80
2022-12-16T21:20:59.260Z,44.10
2022-12-16T21:23:45.729Z,43.27
2022-12-16T21:26:32.269Z,47.80
2022-12-16T21:29:18.841Z,42.93
2022-12-16T21:32:08.799Z,47.37
2022-12-16T21:38:02.670Z,47.73
2022-12-16T21:40:49.200Z,48.23
2022-12-16T21:43:35.980Z,50.30
2022-12-16T21:46:22.691Z,48.80
2022-12-16T21:49:10.532Z,46.90
2022-12-16T21:51:57.323Z,43.30
2022-12-16T21:54:44.078Z,45.03
2022-12-16T21:57:30.490Z,47.53
2022-12-16T22:00:17.066Z,38.70
2022-12-16T22:03:03.883Z,38.40
2022-12-16T22:05:52.052Z,40.40
2022-12-16T22:08:38.949Z,40.60
2022-12-16T22:11:28.804Z,39.13
2022-12-16T22:14:15.573Z,42.50
2022-12-16T22:17:02.479Z,40.63
2022-12-16T22:19:49.028Z,39.33
2022-12-16T22:22:37.303Z,37.83
2022-12-16T22:25:24.682Z,36.30
2022-12-16T22:28:11.131Z,36.70
2022-12-16T22:30:58.020Z,34.73
2022-12-16T22:33:44.700Z,38.80
2022-12-16T22:36:21.894Z,53.10
2022-12-16T22:36:33.000Z,39.07
2022-12-16T22:39:21.224Z,46.77
2022-12-16T22:42:07.529Z,40.37
2022-12-16T22:44:56.473Z,61.03
2022-12-16T22:47:43.068Z,43.97
2022-12-16T22:50:29.402Z,45.50
2022-12-16T22:53:16.079Z,41.47
2022-12-16T22:56:09.691Z,40.57
2022-12-16T22:58:56.314Z,37.07
2022-12-16T23:01:43.194Z,29.60
2022-12-16T23:04:30.044Z,31.33
2022-12-16T23:07:17.099Z,31.73
2022-12-16T23:10:03.846Z,33.00
2022-12-16T23:12:52.160Z,33.97
2022-12-16T23:15:38.607Z,32.93
2022-12-16T23:18:25.359Z,33.33
2022-12-16T23:21:11.738Z,33.70
2022-12-16T23:23:58.122Z,31.30
2022-12-16T23:26:44.681Z,34.27
2022-12-16T23:29:32.815Z,25.33
2022-12-16T23:32:19.104Z,28.57
2022-12-16T23:35:05.721Z,30.47
2022-12-16T23:37:51.956Z,26.23
2022-12-16T23:40:38.529Z,25.40
2022-12-16T23:43:24.879Z,27.53
2022-12-16T23:46:12.966Z,26.27
2022-12-16T23:48:59.456Z,24.13
2022-12-16T23:51:57.428Z,25.23
2022-12-16T23:54:48.566Z,25.90
2022-12-16T23:57:35.375Z,26.60
